首页
METAR-TAF:

METAR-TAF

机场 :

Monticello Regional Airport

Monticello, 艾奥瓦州, 美国

纬度: 42-14N, 经度: 091-10W, 海拔: 259米

当前天气观测

该预报发布于20分钟前的07:55 UTC
风速10节,风向西
温度 -13°C
湿度 61%
气压 1018 hPa
能見度: 16.1公里
天空无云

METAR: KMXO 100755Z AUTO 28010KT 10SM CLR M13/M19 A3005 RMK AO2

时间: 02:15 (08:15 UTC)


TAF: 丢失

超过4000个机场的气象观测和天气预报(METAR&TAF报告)。

可查询的气象台以黄色和红色小点在地图上表示。

将鼠标移到小点上方,可查看气象台名称。

然后点击查看天气观测和预报。

如需切换地图:点击带黑十字的绿色按钮放大地图;点击带横线的绿色按钮缩小地图;或者点击绿色箭头查看邻近地区的地图。


METAR-TAF: